createdAt,value
2023-02-22T00:01:35.950Z,99.90
2023-02-22T00:04:07.052Z,99.90
2023-02-22T00:06:34.162Z,99.90
2023-02-22T00:09:02.537Z,99.90
2023-02-22T00:11:31.464Z,99.90
2023-02-22T00:13:58.394Z,99.90
2023-02-22T00:16:26.502Z,99.90
2023-02-22T00:18:54.273Z,99.90
2023-02-22T00:21:21.652Z,99.90
2023-02-22T00:23:49.569Z,99.90
2023-02-22T00:26:21.958Z,99.90
2023-02-22T00:28:53.649Z,99.90
2023-02-22T00:31:21.691Z,99.90
2023-02-22T00:33:48.668Z,99.90
2023-02-22T00:36:15.776Z,99.90
2023-02-22T00:38:42.744Z,99.90
2023-02-22T00:41:10.319Z,99.90
2023-02-22T00:43:37.185Z,99.90
2023-02-22T00:46:04.633Z,99.90
2023-02-22T00:48:31.421Z,99.90
2023-02-22T00:50:58.165Z,99.90
2023-02-22T00:53:26.115Z,99.90
2023-02-22T00:55:53.750Z,99.90
2023-02-22T00:58:21.185Z,99.90
2023-02-22T01:00:49.286Z,99.90
2023-02-22T01:03:19.132Z,99.90
2023-02-22T01:05:47.031Z,99.90
2023-02-22T01:08:17.869Z,99.90
2023-02-22T01:10:45.236Z,99.90
2023-02-22T01:13:13.176Z,99.90
2023-02-22T01:15:44.777Z,99.90
2023-02-22T01:18:12.935Z,99.90
2023-02-22T01:20:39.915Z,99.90
2023-02-22T01:23:08.146Z,99.90
2023-02-22T01:29:23.432Z,99.90
2023-02-22T01:31:55.591Z,99.90
2023-02-22T01:34:24.205Z,99.90
2023-02-22T01:36:50.934Z,99.90
2023-02-22T01:39:18.166Z,99.90
2023-02-22T01:41:45.770Z,99.90
2023-02-22T01:44:29.208Z,99.90
2023-02-22T01:46:58.081Z,99.90
2023-02-22T01:49:29.619Z,99.90
2023-02-22T01:51:58.882Z,99.90
2023-02-22T01:54:32.254Z,99.90
2023-02-22T01:57:07.505Z,99.90
2023-02-22T01:59:37.851Z,99.90
2023-02-22T02:02:05.384Z,99.90
2023-02-22T02:04:33.472Z,99.90
2023-02-22T02:07:04.119Z,99.90
2023-02-22T02:09:43.565Z,99.90
2023-02-22T02:12:12.529Z,99.90
2023-02-22T02:14:41.699Z,99.90
2023-02-22T02:17:11.746Z,99.90
2023-02-22T02:20:13.170Z,99.90
2023-02-22T02:23:02.875Z,99.90
2023-02-22T02:25:41.674Z,99.90
2023-02-22T02:28:35.163Z,99.90
2023-02-22T02:31:31.054Z,99.90
2023-02-22T02:34:21.882Z,99.90
2023-02-22T02:36:57.351Z,99.90
2023-02-22T02:39:30.786Z,99.90
2023-02-22T02:42:00.749Z,99.90
2023-02-22T02:44:48.738Z,99.90
2023-02-22T02:47:22.106Z,99.90
2023-02-22T02:50:01.014Z,99.90
2023-02-22T02:52:29.156Z,99.90
2023-02-22T02:54:57.169Z,99.90
2023-02-22T02:57:24.728Z,99.90
2023-02-22T02:59:51.621Z,99.90
2023-02-22T03:02:30.074Z,99.90
2023-02-22T03:05:07.601Z,99.90
2023-02-22T03:07:52.440Z,99.90
2023-02-22T03:10:22.366Z,99.90
2023-02-22T03:12:58.590Z,99.90
2023-02-22T03:15:40.569Z,99.90
2023-02-22T03:18:22.880Z,99.90
2023-02-22T03:21:10.393Z,99.90
2023-02-22T03:24:02.900Z,99.90
2023-02-22T03:26:41.467Z,99.90
2023-02-22T03:29:11.318Z,99.90
2023-02-22T03:31:48.625Z,99.90
2023-02-22T03:34:25.838Z,99.90
2023-02-22T03:37:03.927Z,99.90
2023-02-22T03:39:32.368Z,99.90
2023-02-22T03:42:08.813Z,99.90
2023-02-22T03:44:40.230Z,99.90
2023-02-22T03:47:12.897Z,99.90
2023-02-22T03:49:51.422Z,99.90
2023-02-22T03:52:19.250Z,99.90
2023-02-22T03:54:45.990Z,99.90
2023-02-22T03:57:20.313Z,99.90
2023-02-22T03:59:47.548Z,99.90
2023-02-22T04:02:14.265Z,99.90
2023-02-22T04:04:41.047Z,99.90
2023-02-22T04:07:07.780Z,99.90
2023-02-22T04:09:34.459Z,99.90
2023-02-22T04:12:01.182Z,99.90
2023-02-22T04:14:29.547Z,99.90
2023-02-22T04:16:56.471Z,99.90
2023-02-22T04:19:23.157Z,99.90
2023-02-22T04:21:49.828Z,99.90
2023-02-22T04:24:16.540Z,99.90
2023-02-22T04:26:43.360Z,99.90
2023-02-22T04:29:10.258Z,99.90
2023-02-22T04:31:37.117Z,99.90
2023-02-22T04:34:04.193Z,99.90
2023-02-22T04:36:34.461Z,99.90
2023-02-22T04:39:01.820Z,99.90
2023-02-22T04:41:28.622Z,99.90
2023-02-22T04:43:55.347Z,99.90
2023-02-22T04:46:22.087Z,99.90
2023-02-22T04:48:49.180Z,99.90
2023-02-22T04:51:16.543Z,99.90
2023-02-22T04:53:43.332Z,99.90
2023-02-22T04:56:10.055Z,99.90
2023-02-22T04:58:36.840Z,99.90
2023-02-22T05:01:04.044Z,99.90
2023-02-22T05:03:30.853Z,99.90
2023-02-22T05:05:57.589Z,99.90
2023-02-22T05:08:24.277Z,99.90
2023-02-22T05:10:50.994Z,99.90
2023-02-22T05:13:17.673Z,99.90
2023-02-22T05:15:44.403Z,99.90
2023-02-22T05:18:11.083Z,99.90
2023-02-22T05:20:37.895Z,99.90
2023-02-22T05:23:05.611Z,99.90
2023-02-22T05:25:33.610Z,99.90
2023-02-22T05:28:10.661Z,99.90
2023-02-22T05:30:41.112Z,99.90
2023-02-22T05:33:09.092Z,99.90
2023-02-22T05:35:37.128Z,99.90
2023-02-22T05:38:04.752Z,99.90
2023-02-22T05:40:32.069Z,99.90
2023-02-22T05:43:00.700Z,99.90
2023-02-22T05:45:28.528Z,99.90
2023-02-22T05:47:55.690Z,99.90
2023-02-22T05:50:22.906Z,99.90
2023-02-22T05:52:49.745Z,99.90
2023-02-22T05:55:19.066Z,99.90
2023-02-22T05:57:45.905Z,99.90
2023-02-22T06:00:25.102Z,99.90
2023-02-22T06:03:06.485Z,99.90
2023-02-22T06:05:33.267Z,99.90
2023-02-22T06:08:00.674Z,99.90
2023-02-22T06:10:27.914Z,99.90
2023-02-22T06:12:55.120Z,99.90
2023-02-22T06:15:24.034Z,99.90
2023-02-22T06:17:51.982Z,99.90
2023-02-22T06:20:21.451Z,99.90
2023-02-22T06:22:49.503Z,99.90
2023-02-22T06:25:19.331Z,99.90
2023-02-22T06:27:46.101Z,99.90
2023-02-22T06:30:14.001Z,99.90
2023-02-22T06:32:40.726Z,99.90
2023-02-22T06:35:08.731Z,99.90
2023-02-22T06:37:36.188Z,99.90
2023-02-22T06:40:05.687Z,99.90
2023-02-22T06:42:32.952Z,99.90
2023-02-22T06:44:59.957Z,99.90
2023-02-22T06:47:26.707Z,99.90
2023-02-22T06:49:54.980Z,99.90
2023-02-22T06:52:22.744Z,99.90
2023-02-22T06:54:50.170Z,99.90
2023-02-22T06:57:17.600Z,99.90
2023-02-22T06:59:44.516Z,99.90
2023-02-22T07:02:14.844Z,99.90
2023-02-22T07:04:43.415Z,99.90
2023-02-22T07:07:10.811Z,99.90
2023-02-22T07:09:37.880Z,99.90
2023-02-22T07:12:04.648Z,99.90
2023-02-22T07:14:31.508Z,99.90
2023-02-22T07:16:58.222Z,99.90
2023-02-22T07:19:25.150Z,99.90
2023-02-22T07:21:59.349Z,99.90
2023-02-22T07:24:28.519Z,99.90
2023-02-22T07:26:55.488Z,99.90
2023-02-22T07:29:25.125Z,99.90
2023-02-22T07:31:51.951Z,99.90
2023-02-22T07:34:18.765Z,99.90
2023-02-22T07:36:45.454Z,99.90
2023-02-22T07:39:12.227Z,99.90
2023-02-22T07:41:38.904Z,99.90
2023-02-22T07:44:05.782Z,99.90
2023-02-22T07:46:32.555Z,99.90
2023-02-22T07:48:59.290Z,99.90
2023-02-22T07:51:27.052Z,99.90
2023-02-22T07:53:53.835Z,99.90
2023-02-22T07:56:20.667Z,99.90
2023-02-22T07:58:47.643Z,99.90
2023-02-22T08:01:14.392Z,99.90
2023-02-22T08:03:41.353Z,99.90
2023-02-22T08:06:08.674Z,99.90
2023-02-22T08:08:35.352Z,99.90
2023-02-22T08:11:02.471Z,99.90
2023-02-22T08:13:29.324Z,99.90
2023-02-22T08:15:56.186Z,99.90
2023-02-22T08:18:24.135Z,99.90
2023-02-22T08:20:52.297Z,99.90
2023-02-22T08:23:21.171Z,99.90
2023-02-22T08:25:48.080Z,99.90
2023-02-22T08:28:17.820Z,99.90
2023-02-22T08:30:44.557Z,99.90
2023-02-22T08:33:19.130Z,99.90
2023-02-22T08:35:49.517Z,99.90
2023-02-22T08:38:23.553Z,99.90
2023-02-22T08:40:50.586Z,99.90
2023-02-22T08:43:19.052Z,99.90
2023-02-22T08:45:46.664Z,99.90
2023-02-22T08:48:15.334Z,99.90
2023-02-22T08:50:42.244Z,99.90
2023-02-22T08:53:10.195Z,99.90
2023-02-22T08:55:39.045Z,99.90
2023-02-22T08:58:09.244Z,99.90
2023-02-22T09:00:38.888Z,99.90
2023-02-22T09:03:08.299Z,99.90
2023-02-22T09:05:35.178Z,99.90
2023-02-22T09:08:02.046Z,99.90
2023-02-22T09:10:31.884Z,99.90
2023-02-22T09:13:00.840Z,99.90
2023-02-22T09:15:28.364Z,99.90
2023-02-22T09:17:55.791Z,99.90
2023-02-22T09:20:24.347Z,99.90
2023-02-22T09:22:51.492Z,99.90
2023-02-22T09:25:20.884Z,99.90
2023-02-22T09:27:52.577Z,99.90
2023-02-22T09:30:32.781Z,99.90
2023-02-22T09:33:11.870Z,99.90
2023-02-22T09:35:42.389Z,99.90
2023-02-22T09:38:10.349Z,99.90
2023-02-22T09:40:45.070Z,99.90
2023-02-22T09:43:20.934Z,99.90
2023-02-22T09:46:06.071Z,99.90
2023-02-22T09:48:51.444Z,99.90
2023-02-22T09:51:20.590Z,99.90
2023-02-22T09:53:50.703Z,99.90
2023-02-22T09:56:19.743Z,99.90
2023-02-22T09:58:52.731Z,99.90
2023-02-22T10:01:27.232Z,99.90
2023-02-22T10:04:19.164Z,99.90
2023-02-22T10:07:15.271Z,99.90
2023-02-22T10:09:43.697Z,99.90
2023-02-22T10:12:50.389Z,99.90
2023-02-22T10:15:44.714Z,98.30
2023-02-22T10:18:39.528Z,98.10
2023-02-22T10:21:31.141Z,96.60
2023-02-22T10:24:38.542Z,97.10
2023-02-22T10:27:09.492Z,95.10
2023-02-22T10:29:46.588Z,94.00
2023-02-22T10:32:25.979Z,94.10
2023-02-22T10:34:54.727Z,93.50
2023-02-22T10:37:25.457Z,92.80
2023-02-22T10:40:18.158Z,91.20
2023-02-22T10:42:45.087Z,90.50
2023-02-22T10:45:32.762Z,90.60
2023-02-22T10:48:03.526Z,90.00
2023-02-22T10:50:33.698Z,91.40
2023-02-22T10:53:00.482Z,91.30
2023-02-22T10:55:27.452Z,90.70
2023-02-22T10:58:04.700Z,90.30
2023-02-22T11:00:37.306Z,90.00
2023-02-22T11:03:18.224Z,89.30
2023-02-22T11:05:44.922Z,86.80
2023-02-22T11:08:33.058Z,86.10
2023-02-22T11:11:20.324Z,88.30
2023-02-22T11:13:57.497Z,84.30
2023-02-22T11:16:33.043Z,85.20
2023-02-22T11:19:02.885Z,83.60
2023-02-22T11:21:32.383Z,84.00
2023-02-22T11:24:11.311Z,82.10
2023-02-22T11:26:43.743Z,80.80
2023-02-22T11:29:34.052Z,80.80
2023-02-22T11:32:14.125Z,79.30
2023-02-22T11:34:45.216Z,76.70
2023-02-22T11:37:25.854Z,76.90
2023-02-22T11:40:24.979Z,76.10
2023-02-22T11:43:16.025Z,76.50
2023-02-22T11:46:05.506Z,74.40
2023-02-22T11:48:36.830Z,77.50
2023-02-22T11:51:16.516Z,77.60
2023-02-22T11:53:57.030Z,81.40
2023-02-22T11:56:49.162Z,80.00
2023-02-22T11:59:41.433Z,80.00
2023-02-22T12:02:24.288Z,78.80
2023-02-22T12:05:10.975Z,80.80
2023-02-22T12:08:05.306Z,78.40
2023-02-22T12:10:42.896Z,78.50
2023-02-22T12:13:26.182Z,77.50
2023-02-22T12:16:01.931Z,72.60
2023-02-22T12:18:54.959Z,71.90
2023-02-22T12:21:24.693Z,72.30
2023-02-22T12:23:55.044Z,74.10
2023-02-22T12:26:36.556Z,76.40
2023-02-22T12:29:26.156Z,75.90
2023-02-22T12:32:09.744Z,75.40
2023-02-22T12:34:43.582Z,76.10
2023-02-22T12:37:17.994Z,73.10
2023-02-22T12:39:53.966Z,74.90
2023-02-22T12:42:46.776Z,75.70
2023-02-22T12:45:27.110Z,73.00
2023-02-22T12:48:07.210Z,76.80
2023-02-22T12:50:36.536Z,79.80
2023-02-22T12:53:20.099Z,75.30
2023-02-22T12:56:00.206Z,77.10
2023-02-22T12:58:56.588Z,76.90
2023-02-22T13:01:30.002Z,77.70
2023-02-22T13:03:56.906Z,79.20
2023-02-22T13:06:29.653Z,79.40
2023-02-22T13:09:01.891Z,75.20
2023-02-22T13:12:02.724Z,74.40
2023-02-22T13:14:52.601Z,75.70
2023-02-22T13:17:26.770Z,72.70
2023-02-22T13:20:11.698Z,71.00
2023-02-22T13:22:50.070Z,68.10
2023-02-22T13:25:21.831Z,66.10
2023-02-22T13:28:13.382Z,66.30
2023-02-22T13:31:15.297Z,64.00
2023-02-22T13:34:01.191Z,65.00
2023-02-22T13:36:38.406Z,63.50
2023-02-22T13:39:27.984Z,65.10
2023-02-22T13:42:20.448Z,61.70
2023-02-22T13:45:08.227Z,63.20
2023-02-22T13:48:05.153Z,62.50
2023-02-22T13:51:03.182Z,62.50
2023-02-22T13:53:37.346Z,63.00
2023-02-22T13:56:04.531Z,64.10
2023-02-22T13:58:31.403Z,63.60
2023-02-22T14:00:59.776Z,62.80
2023-02-22T14:03:36.583Z,63.40
2023-02-22T14:06:05.497Z,63.70
2023-02-22T14:08:33.692Z,60.50
2023-02-22T14:11:02.212Z,56.50
2023-02-22T14:13:30.504Z,54.00
2023-02-22T14:16:00.410Z,53.70
2023-02-22T14:18:42.089Z,54.70
2023-02-22T14:21:14.322Z,56.60
2023-02-22T14:23:43.268Z,56.30
2023-02-22T14:26:26.668Z,51.90
2023-02-22T14:29:08.618Z,51.10
2023-02-22T14:31:43.517Z,51.10
2023-02-22T14:34:12.072Z,52.60
2023-02-22T14:36:41.857Z,53.60
2023-02-22T14:39:21.816Z,54.40
2023-02-22T14:42:04.417Z,56.20
2023-02-22T14:44:39.573Z,56.00
2023-02-22T14:47:10.094Z,57.30
2023-02-22T14:49:41.921Z,57.80
2023-02-22T14:52:19.663Z,59.50
2023-02-22T14:55:04.450Z,59.40
2023-02-22T14:58:06.773Z,59.20
2023-02-22T15:00:42.637Z,59.90
2023-02-22T15:03:32.941Z,60.80
2023-02-22T15:06:22.939Z,60.40
2023-02-22T15:09:23.534Z,62.10
2023-02-22T15:11:55.176Z,61.90
2023-02-22T15:14:26.709Z,59.80
2023-02-22T15:16:57.248Z,60.70
2023-02-22T15:19:37.223Z,60.70
2023-02-22T15:22:06.526Z,62.60
2023-02-22T15:24:36.214Z,63.60
2023-02-22T15:27:23.257Z,62.80
2023-02-22T15:29:56.578Z,63.60
2023-02-22T15:32:36.614Z,65.00
2023-02-22T15:35:29.560Z,65.20
2023-02-22T15:38:11.572Z,65.00
2023-02-22T15:40:42.956Z,63.20
2023-02-22T15:43:28.484Z,64.70
2023-02-22T15:45:56.670Z,65.00
2023-02-22T15:48:26.177Z,66.50
2023-02-22T15:51:10.630Z,67.80
2023-02-22T15:53:46.877Z,67.30
2023-02-22T15:56:23.816Z,67.80
2023-02-22T15:58:50.784Z,69.60
2023-02-22T16:01:19.949Z,70.80
2023-02-22T16:03:50.046Z,71.60
2023-02-22T16:06:35.174Z,71.90
2023-02-22T16:09:09.322Z,71.90
2023-02-22T16:11:43.801Z,72.50
2023-02-22T16:14:42.874Z,72.10
2023-02-22T16:17:30.865Z,73.30
2023-02-22T16:19:59.903Z,72.60
2023-02-22T16:22:37.842Z,73.10
2023-02-22T16:25:19.685Z,73.30
2023-02-22T16:27:59.872Z,74.70
2023-02-22T16:30:32.418Z,74.70
2023-02-22T16:33:00.998Z,75.00
2023-02-22T16:35:29.495Z,75.50
2023-02-22T16:38:00.321Z,75.80
2023-02-22T16:40:39.816Z,76.50
2023-02-22T16:43:09.813Z,78.20
2023-02-22T16:45:36.500Z,78.50
2023-02-22T16:48:20.850Z,79.40
2023-02-22T16:50:53.055Z,80.70
2023-02-22T16:53:23.834Z,82.00
2023-02-22T16:55:57.561Z,81.90
2023-02-22T16:58:28.647Z,83.00
2023-02-22T17:00:57.397Z,83.80
2023-02-22T17:03:25.917Z,83.70
2023-02-22T17:05:53.096Z,85.40
2023-02-22T17:08:19.789Z,86.00
2023-02-22T17:10:46.530Z,87.10
2023-02-22T17:13:23.616Z,87.80
2023-02-22T17:15:51.957Z,88.60
2023-02-22T17:18:24.082Z,89.60
2023-02-22T17:20:52.464Z,90.30
2023-02-22T17:23:20.195Z,91.30
2023-02-22T17:26:02.335Z,91.20
2023-02-22T17:28:30.020Z,91.70
2023-02-22T17:31:02.442Z,92.50
2023-02-22T17:33:32.922Z,92.80
2023-02-22T17:36:02.662Z,93.70
2023-02-22T17:38:30.769Z,94.40
2023-02-22T17:40:59.322Z,95.00
2023-02-22T17:43:27.932Z,96.10
2023-02-22T17:45:55.137Z,96.30
2023-02-22T17:48:24.201Z,96.60
2023-02-22T17:50:51.962Z,96.90
2023-02-22T17:53:22.522Z,97.50
2023-02-22T17:55:49.715Z,98.10
2023-02-22T18:02:04.284Z,98.70
2023-02-22T18:04:34.741Z,99.70
2023-02-22T18:07:01.497Z,99.80
2023-02-22T18:09:28.145Z,99.90
2023-02-22T18:11:54.748Z,99.90
2023-02-22T18:14:21.461Z,99.90
2023-02-22T18:16:48.068Z,99.90
2023-02-22T18:19:20.441Z,99.90
2023-02-22T18:21:48.714Z,99.90
2023-02-22T18:24:15.379Z,99.90
2023-02-22T18:26:42.091Z,99.90
2023-02-22T18:29:12.285Z,99.90
2023-02-22T18:31:39.117Z,99.90
2023-02-22T18:34:05.873Z,99.90
2023-02-22T18:36:32.547Z,99.90
2023-02-22T18:38:59.256Z,99.90
2023-02-22T18:41:26.481Z,99.90
2023-02-22T18:43:55.666Z,99.90
2023-02-22T18:46:24.355Z,99.90
2023-02-22T18:48:54.271Z,99.90
2023-02-22T18:51:21.358Z,99.90
2023-02-22T18:53:49.844Z,99.90
2023-02-22T18:56:21.576Z,99.90
2023-02-22T18:58:53.230Z,99.90
2023-02-22T19:01:20.651Z,99.90
2023-02-22T19:03:47.392Z,99.90
2023-02-22T19:06:16.477Z,99.90
2023-02-22T19:08:45.071Z,99.90
2023-02-22T19:11:17.863Z,99.90
2023-02-22T19:13:48.988Z,99.90
2023-02-22T19:16:19.758Z,99.90
2023-02-22T19:18:47.658Z,99.90
2023-02-22T19:21:14.942Z,99.90
2023-02-22T19:23:46.134Z,99.90
2023-02-22T19:26:14.747Z,99.90
2023-02-22T19:28:41.432Z,99.90
2023-02-22T19:31:19.349Z,99.90
2023-02-22T19:33:48.036Z,99.90
2023-02-22T19:36:15.505Z,99.90
2023-02-22T19:38:42.566Z,99.90
2023-02-22T19:41:12.404Z,99.90
2023-02-22T19:43:39.457Z,99.90
2023-02-22T19:46:07.621Z,99.90
2023-02-22T19:48:34.580Z,99.90
2023-02-22T19:51:06.707Z,99.90
2023-02-22T19:53:34.642Z,99.90
2023-02-22T19:56:11.720Z,99.90
2023-02-22T19:58:40.686Z,99.90
2023-02-22T20:01:22.972Z,99.90
2023-02-22T20:03:54.295Z,99.90
2023-02-22T20:06:23.144Z,99.90
2023-02-22T20:08:51.155Z,99.90
2023-02-22T20:11:18.232Z,99.90
2023-02-22T20:13:45.388Z,99.90
2023-02-22T20:16:15.636Z,99.90
2023-02-22T20:18:43.875Z,99.90
2023-02-22T20:21:14.015Z,99.90
2023-02-22T20:23:44.189Z,99.90
2023-02-22T20:26:31.561Z,99.90
2023-02-22T20:28:59.581Z,99.90
2023-02-22T20:31:26.676Z,99.90
2023-02-22T20:33:55.710Z,99.90
2023-02-22T20:36:22.997Z,99.90
2023-02-22T20:38:54.325Z,99.90
2023-02-22T20:41:28.076Z,99.90
2023-02-22T20:43:56.214Z,99.90
2023-02-22T20:46:27.726Z,99.90
2023-02-22T20:48:55.944Z,99.90
2023-02-22T20:51:23.400Z,99.90
2023-02-22T20:53:50.246Z,99.90
2023-02-22T20:56:22.710Z,99.90
2023-02-22T20:58:49.620Z,99.90
2023-02-22T21:01:19.595Z,99.90
2023-02-22T21:03:46.836Z,99.90
2023-02-22T21:06:15.722Z,99.90
2023-02-22T21:08:43.691Z,99.90
2023-02-22T21:11:15.686Z,99.90
2023-02-22T21:13:42.460Z,99.90
2023-02-22T21:16:15.446Z,99.90
2023-02-22T21:18:42.129Z,99.90
2023-02-22T21:21:12.634Z,99.90
2023-02-22T21:23:42.893Z,99.90
2023-02-22T21:26:15.646Z,99.90
2023-02-22T21:28:50.845Z,99.90
2023-02-22T21:31:20.333Z,99.90
2023-02-22T21:33:50.464Z,99.90
2023-02-22T21:36:18.109Z,99.90
2023-02-22T21:38:53.357Z,99.90
2023-02-22T21:41:21.571Z,99.90
2023-02-22T21:43:52.151Z,99.90
2023-02-22T21:46:19.533Z,99.90
2023-02-22T21:48:48.910Z,99.90
2023-02-22T21:51:25.351Z,99.90
2023-02-22T21:53:54.522Z,99.90
2023-02-22T21:56:28.428Z,99.90
2023-02-22T21:59:00.135Z,99.90
2023-02-22T22:01:28.651Z,99.90
2023-02-22T22:03:56.418Z,99.90
2023-02-22T22:06:23.014Z,99.90
2023-02-22T22:08:50.401Z,99.90
2023-02-22T22:11:17.899Z,99.90
2023-02-22T22:13:44.808Z,99.90
2023-02-22T22:16:14.794Z,99.90
2023-02-22T22:18:43.124Z,99.90
2023-02-22T22:21:22.744Z,99.90
2023-02-22T22:23:50.741Z,99.90
2023-02-22T22:26:20.147Z,99.90
2023-02-22T22:28:56.088Z,99.90
2023-02-22T22:31:26.006Z,99.90
2023-02-22T22:33:53.992Z,99.90
2023-02-22T22:36:21.999Z,99.90
2023-02-22T22:38:49.492Z,99.90
2023-02-22T22:41:18.827Z,99.90
2023-02-22T22:43:48.743Z,99.90
2023-02-22T22:46:17.743Z,99.90
2023-02-22T22:48:46.751Z,99.90
2023-02-22T22:51:18.267Z,99.90
2023-02-22T22:53:46.933Z,99.90
2023-02-22T22:56:25.960Z,99.90
2023-02-22T22:58:57.571Z,99.90
2023-02-22T23:01:27.352Z,99.90
2023-02-22T23:03:59.286Z,99.90
2023-02-22T23:06:33.316Z,99.90
2023-02-22T23:09:00.068Z,99.90
2023-02-22T23:11:28.861Z,99.90
2023-02-22T23:13:56.478Z,99.90
2023-02-22T23:16:24.652Z,99.90
2023-02-22T23:18:51.506Z,99.90
2023-02-22T23:21:19.957Z,99.90
2023-02-22T23:23:51.520Z,99.90
2023-02-22T23:26:18.427Z,99.90
2023-02-22T23:28:47.730Z,99.90
2023-02-22T23:31:17.363Z,99.90
2023-02-22T23:33:48.108Z,99.90
2023-02-22T23:36:16.090Z,99.90
2023-02-22T23:38:43.521Z,99.90
2023-02-22T23:41:12.911Z,99.90
2023-02-22T23:43:40.758Z,99.90
2023-02-22T23:46:10.841Z,99.90
2023-02-22T23:48:47.026Z,99.90
2023-02-22T23:51:16.265Z,99.90
2023-02-22T23:53:46.002Z,99.90
2023-02-22T23:56:20.980Z,99.90
2023-02-22T23:58:52.357Z,99.90
